Weather reports worldwide

Advertisment
Desenzano, Italy (16089): temperature & dewpoint: 16.09.2018 23:00:00 - 22.09.2018 23:00:00 (CEST)Desenzano, Italy (16089): wind speed: 16.09.2018 23:00:00 - 22.09.2018 23:00:00 (CEST)Desenzano, Italy (16089): wind direction: 16.09.2018 23:00:00 - 22.09.2018 23:00:00 (CEST)Desenzano, Italy (16089): reduced air pressure: 16.09.2018 23:00:00 - 22.09.2018 23:00:00 (CEST)Desenzano, Italy (16089): precipitation: 16.09.2018 23:00:00 - 22.09.2018 23:00:00 (CEST)
Date & Time tt [°C] td [°C] ff [km/h] ff [kn] dd ppp [hPa] rr [mm]
22.09.2018 23:00:00 - - - - - - -
22.09.2018 22:00:00 24,7 20,7 0 0 N 1017,5 -
22.09.2018 21:00:00 24,9 23,3 0 0 N 1017,0 -
22.09.2018 20:00:00 25,2 22,4 0 0 N 1016,1 0,0
22.09.2018 19:00:00 26,0 23,2 0 0 N 1015,7 -
22.09.2018 18:00:00 26,2 22,6 4 2 NW 1015,2 -
22.09.2018 17:00:00 26,4 23,6 4 2 NW 1015,2 -
22.09.2018 16:00:00 26,3 23,7 5 3 NE 1015,3 -
22.09.2018 15:00:00 26,1 23,3 0 0 N 1015,6 -
22.09.2018 14:00:00 25,7 22,3 0 0 N 1016,0 0,0
22.09.2018 13:00:00 25,5 22,7 0 0 N 1016,2 -
22.09.2018 12:00:00 25,0 22,6 0 0 N 1016,3 -
22.09.2018 11:00:00 24,4 23,1 0 0 N 1016,1 -
22.09.2018 10:00:00 23,9 23,0 0 0 N 1015,9 -
22.09.2018 09:00:00 23,3 22,4 0 0 N 1015,3 -
22.09.2018 08:00:00 22,1 21,7 0 0 N 1014,5 0,0
22.09.2018 07:00:00 21,4 20,3 0 0 N 1014,0 -
22.09.2018 06:00:00 22,0 20,8 0 0 N 1013,6 -
22.09.2018 05:00:00 22,6 21,7 0 0 N 1013,3 -
22.09.2018 04:00:00 22,8 21,9 0 0 N 1013,5 -
22.09.2018 03:00:00 23,6 22,2 0 0 N 1013,2 -
22.09.2018 02:00:00 24,0 22,7 0 0 N 1013,9 0,0
22.09.2018 01:00:00 24,0 22,0 0 0 N 1013,9 -
22.09.2018 00:00:00 24,6 22,4 0 0 N 1014,0 -
21.09.2018 23:00:00 24,8 23,0 0 0 N 1014,2 -
21.09.2018 22:00:00 24,7 21,2 0 0 N 1014,0 -
21.09.2018 21:00:00 25,3 20,7 0 0 N 1013,7 -
21.09.2018 20:00:00 25,9 18,8 0 0 N 1013,3 0,0
21.09.2018 19:00:00 27,1 18,9 0 0 N 1013,0 -
21.09.2018 18:00:00 27,9 18,3 2 1 SW 1013,3 -
21.09.2018 17:00:00 28,1 19,0 0 0 N 1013,5 -
21.09.2018 16:00:00 28,0 18,9 2 1 NE 1014,2 -
21.09.2018 15:00:00 28,0 21,2 2 1 WNW 1014,4 -
21.09.2018 14:00:00 26,8 21,7 5 3 NE 1015,2 0,0
21.09.2018 13:00:00 26,2 20,0 0 0 N 1015,8 -
21.09.2018 12:00:00 25,6 20,6 4 2 NNW 1016,0 -
21.09.2018 11:00:00 25,2 20,8 8 4 NNW 1016,3 -
21.09.2018 10:00:00 24,6 21,7 21 11 NNW 1016,3 -
21.09.2018 09:00:00 24,4 21,5 13 7 NNW 1016,5 -
21.09.2018 08:00:00 24,3 22,1 18 10 NNW 1016,5 0,0
21.09.2018 07:00:00 24,3 21,6 15 8 NW 1016,2 -
21.09.2018 06:00:00 24,3 21,6 11 6 NW 1016,1 -
21.09.2018 05:00:00 23,9 21,2 8 4 NNW 1016,4 -
21.09.2018 04:00:00 24,7 21,9 9 5 NW 1016,5 -
21.09.2018 03:00:00 24,7 22,3 11 6 NW 1016,9 -
21.09.2018 02:00:00 24,5 23,1 8 4 NW 1017,2 0,0
21.09.2018 01:00:00 23,3 21,1 0 0 N 1017,5 -
21.09.2018 00:00:00 23,5 21,5 0 0 N 1017,6 -
20.09.2018 23:00:00 23,8 22,4 0 0 N 1017,5 -
20.09.2018 22:00:00 24,1 22,3 0 0 N 1017,4 -
20.09.2018 21:00:00 24,7 22,3 0 0 N 1017,4 -
20.09.2018 20:00:00 25,3 21,5 0 0 N 1017,1 0,0
20.09.2018 19:00:00 26,5 23,5 0 0 N 1017,1 -
20.09.2018 18:00:00 27,0 23,2 0 0 N 1017,2 -
20.09.2018 17:00:00 26,8 22,4 4 2 NE 1017,4 -
20.09.2018 16:00:00 27,0 22,3 5 3 WNW 1017,7 -
20.09.2018 15:00:00 26,8 19,6 2 1 NNE 1018,2 -
20.09.2018 14:00:00 26,6 21,5 2 1 N 1018,9 0,0
20.09.2018 13:00:00 26,1 21,5 8 4 NNW 1019,4 -
20.09.2018 12:00:00 25,5 20,2 13 7 NNW 1020,0 -
20.09.2018 11:00:00 25,0 21,5 22 12 NNW 1020,4 -
20.09.2018 10:00:00 24,8 20,8 24 13 NNW 1020,2 -
20.09.2018 09:00:00 24,3 21,7 22 12 NW 1019,9 -
20.09.2018 08:00:00 24,1 21,9 15 8 NW 1019,7 0,0
20.09.2018 07:00:00 24,2 21,5 13 7 NW 1019,5 -
20.09.2018 06:00:00 24,3 21,7 11 6 NW 1019,5 -
20.09.2018 05:00:00 24,4 22,0 11 6 NW 1019,6 -
20.09.2018 04:00:00 24,6 22,2 11 6 NW 1019,5 -
20.09.2018 03:00:00 24,8 22,6 16 9 NNW 1019,9 -
20.09.2018 02:00:00 24,8 23,0 11 6 NNW 1020,0 0,0
20.09.2018 01:00:00 25,0 23,0 5 3 NW 1020,2 -
20.09.2018 00:00:00 24,7 23,4 2 1 NW 1020,3 -
19.09.2018 23:00:00 24,0 23,3 0 0 N 1020,1 -
19.09.2018 22:00:00 24,2 23,1 0 0 N 1019,9 -
19.09.2018 21:00:00 24,6 23,2 0 0 N 1019,4 -
19.09.2018 20:00:00 25,4 23,0 0 0 N 1018,6 0,0
19.09.2018 19:00:00 26,5 23,1 0 0 N 1018,4 -
19.09.2018 18:00:00 26,7 22,7 2 1 N 1018,1 -
19.09.2018 17:00:00 26,7 22,1 4 2 NNE 1018,3 -
19.09.2018 16:00:00 26,6 22,6 5 3 NE 1018,7 -
19.09.2018 15:00:00 26,4 22,0 4 2 NNE 1019,1 -
19.09.2018 14:00:00 26,4 20,0 2 1 NE 1019,5 0,0
19.09.2018 13:00:00 26,1 20,1 0 0 N 1019,8 -
19.09.2018 12:00:00 25,6 20,1 4 2 N 1020,4 -
19.09.2018 11:00:00 24,8 20,4 5 3 N 1020,5 -
19.09.2018 10:00:00 24,6 21,3 5 3 NE 1020,5 -
19.09.2018 09:00:00 24,1 21,7 9 5 NE 1020,2 -
19.09.2018 08:00:00 24,2 21,3 13 7 N 1019,7 0,0
19.09.2018 07:00:00 24,1 22,3 13 7 NW 1019,1 -
19.09.2018 06:00:00 24,0 21,6 13 7 NW 1018,8 -
19.09.2018 05:00:00 24,2 22,0 15 8 NW 1019,0 -
19.09.2018 04:00:00 24,2 22,6 11 6 NW 1019,1 -
19.09.2018 03:00:00 24,0 23,6 11 6 NW 1019,3 -
19.09.2018 02:00:00 22,1 21,7 0 0 N 1019,5 0,0
19.09.2018 01:00:00 22,4 21,2 0 0 N 1019,6 -
19.09.2018 00:00:00 23,1 21,7 0 0 N 1019,4 -
18.09.2018 23:00:00 23,8 21,3 0 0 N 1019,3 -
18.09.2018 22:00:00 25,0 21,7 5 3 ENE 1019,3 -
18.09.2018 21:00:00 25,3 23,3 9 5 NW 1018,8 -
18.09.2018 20:00:00 25,1 22,5 2 1 ENE 1018,3 0,0
18.09.2018 19:00:00 26,0 22,8 0 0 N 1017,7 -
18.09.2018 18:00:00 26,3 22,9 0 0 N 1018,0 -
18.09.2018 17:00:00 26,2 22,4 0 0 N 1018,0 -
18.09.2018 16:00:00 26,2 20,9 5 3 NNE 1018,1 -
18.09.2018 15:00:00 25,9 21,5 5 3 N 1018,8 -
18.09.2018 14:00:00 25,8 21,4 5 3 NNW 1019,5 0,0
18.09.2018 13:00:00 25,5 22,3 5 3 NW 1020,1 -
18.09.2018 12:00:00 24,9 23,1 9 5 NNW 1020,3 -
18.09.2018 11:00:00 24,2 23,3 9 5 NNW 1020,5 -
18.09.2018 10:00:00 23,6 23,5 15 8 NNW 1020,3 -
18.09.2018 09:00:00 23,6 23,5 15 8 NW 1020,1 -
18.09.2018 08:00:00 23,3 23,2 15 8 NNW 1020,0 0,0
18.09.2018 07:00:00 22,9 22,8 15 8 NW 1019,8 -
18.09.2018 06:00:00 23,2 23,1 15 8 NW 1019,5 -
18.09.2018 05:00:00 23,8 22,5 0 0 N 1019,6 -
18.09.2018 04:00:00 24,4 23,0 8 4 NW 1019,4 -
18.09.2018 03:00:00 24,0 22,9 0 0 N 1019,5 -
18.09.2018 02:00:00 22,8 21,4 0 0 N 1019,6 0,0
18.09.2018 01:00:00 23,2 21,2 2 1 S 1019,7 -
18.09.2018 00:00:00 23,9 21,4 0 0 N 1019,7 -
17.09.2018 23:00:00 24,6 21,3 0 0 N 1019,9 -
17.09.2018 22:00:00 24,8 21,3 2 1 ESE 1020,2 -
17.09.2018 21:00:00 25,0 21,2 4 2 SSW 1019,8 -
17.09.2018 20:00:00 25,2 20,2 0 0 N 1019,4 -
17.09.2018 19:00:00 25,8 20,8 2 1 WSW 1019,1 -
17.09.2018 18:00:00 26,4 21,8 0 0 N 1018,6 -
17.09.2018 17:00:00 26,7 22,3 8 4 NNE 1018,8 -
17.09.2018 16:00:00 26,8 22,2 9 5 N 1019,3 -
17.09.2018 15:00:00 26,7 20,9 8 4 NNE 1019,8 -
17.09.2018 14:00:00 26,6 21,1 5 3 N 1020,7 0,0
17.09.2018 13:00:00 26,1 20,6 0 0 N 1021,0 -
17.09.2018 12:00:00 26,1 21,7 4 2 ENE 1021,7 -
17.09.2018 11:00:00 25,2 21,8 0 0 N 1022,1 -
17.09.2018 10:00:00 24,6 21,7 5 3 NNW 1022,0 -
17.09.2018 09:00:00 24,4 21,8 4 2 NNE 1021,5 -
17.09.2018 08:00:00 24,2 22,0 8 4 WNW 1021,4 0,0
17.09.2018 07:00:00 24,3 21,9 8 4 NW 1021,1 -
17.09.2018 06:00:00 24,4 22,0 11 6 NW 1020,7 -
17.09.2018 05:00:00 24,4 22,0 9 5 NW 1020,9 -
17.09.2018 04:00:00 24,5 22,7 9 5 WNW 1020,9 -
17.09.2018 03:00:00 24,1 23,2 0 0 N 1020,9 -
17.09.2018 02:00:00 23,8 22,7 0 0 N 1021,5 0,0
17.09.2018 01:00:00 23,9 23,0 0 0 N 1021,6 -
17.09.2018 00:00:00 24,1 22,5 0 0 N 1021,7 -
16.09.2018 23:00:00 24,7 23,3 0 0 N 1021,8 -

tt = temperature
td = dewpoint
ff = wind speed
dd = wind direction
ppp = reduced air pressure
rr = precipitation

Next stations